sensor_id;sensor_type;location;lat;lon;timestamp;pressure;altitude;pressure_sealevel;temperature;humidity
38786;BME280;24535;45.508;12.252;2023-02-12T00:01:18;103226.28;;;5.17;53.09
38786;BME280;24535;45.508;12.252;2023-02-12T00:03:43;103233.25;;;5.20;53.09
38786;BME280;24535;45.508;12.252;2023-02-12T00:06:09;103231.50;;;5.17;53.07
38786;BME280;24535;45.508;12.252;2023-02-12T00:08:36;103234.09;;;5.14;52.89
38786;BME280;24535;45.508;12.252;2023-02-12T00:13:34;103235.84;;;5.18;52.98
38786;BME280;24535;45.508;12.252;2023-02-12T00:16:04;103223.66;;;5.17;52.82
38786;BME280;24535;45.508;12.252;2023-02-12T00:18:29;103221.03;;;5.17;53.14
38786;BME280;24535;45.508;12.252;2023-02-12T00:20:58;103220.19;;;5.15;52.96
38786;BME280;24535;45.508;12.252;2023-02-12T00:23:24;103217.56;;;5.18;53.26
38786;BME280;24535;45.508;12.252;2023-02-12T00:25:49;103221.06;;;5.19;52.77
38786;BME280;24535;45.508;12.252;2023-02-12T00:28:15;103214.97;;;5.15;53.37
38786;BME280;24535;45.508;12.252;2023-02-12T00:30:40;103212.34;;;5.14;53.35
38786;BME280;24535;45.508;12.252;2023-02-12T00:33:06;103209.75;;;5.12;53.41
38786;BME280;24535;45.508;12.252;2023-02-12T00:35:31;103209.78;;;5.11;53.61
38786;BME280;24535;45.508;12.252;2023-02-12T00:37:57;103213.25;;;5.08;53.32
38786;BME280;24535;45.508;12.252;2023-02-12T00:40:22;103209.81;;;5.03;53.19
38786;BME280;24535;45.508;12.252;2023-02-12T00:42:48;103208.94;;;5.00;53.37
38786;BME280;24535;45.508;12.252;2023-02-12T00:45:14;103211.56;;;5.00;53.27
38786;BME280;24535;45.508;12.252;2023-02-12T00:47:39;103207.19;;;5.00;53.52
38786;BME280;24535;45.508;12.252;2023-02-12T00:50:05;103198.47;;;5.01;53.98
38786;BME280;24535;45.508;12.252;2023-02-12T00:52:31;103201.09;;;5.04;53.29
38786;BME280;24535;45.508;12.252;2023-02-12T00:54:56;103201.09;;;5.00;53.51
38786;BME280;24535;45.508;12.252;2023-02-12T00:57:22;103201.09;;;4.98;53.70
38786;BME280;24535;45.508;12.252;2023-02-12T00:59:47;103192.41;;;4.96;53.84
38786;BME280;24535;45.508;12.252;2023-02-12T01:02:12;103181.09;;;4.92;53.32
38786;BME280;24535;45.508;12.252;2023-02-12T01:04:38;103198.50;;;4.95;53.71
38786;BME280;24535;45.508;12.252;2023-02-12T01:07:03;103200.25;;;4.91;54.13
38786;BME280;24535;45.508;12.252;2023-02-12T01:09:29;103203.75;;;4.90;53.66
38786;BME280;24535;45.508;12.252;2023-02-12T01:11:54;103201.13;;;4.89;53.61
38786;BME280;24535;45.508;12.252;2023-02-12T01:14:19;103195.91;;;4.86;53.84
38786;BME280;24535;45.508;12.252;2023-02-12T01:16:45;103182.88;;;4.80;54.12
38786;BME280;24535;45.508;12.252;2023-02-12T01:19:11;103182.00;;;4.84;54.05
38786;BME280;24535;45.508;12.252;2023-02-12T01:21:37;103183.75;;;4.80;53.92
38786;BME280;24535;45.508;12.252;2023-02-12T01:24:03;103184.63;;;4.82;53.92
38786;BME280;24535;45.508;12.252;2023-02-12T01:26:30;103177.66;;;4.77;54.37
38786;BME280;24535;45.508;12.252;2023-02-12T01:29:00;103188.13;;;4.78;54.17
38786;BME280;24535;45.508;12.252;2023-02-12T01:31:30;103189.00;;;4.76;54.42
38786;BME280;24535;45.508;12.252;2023-02-12T01:33:58;103188.13;;;4.74;54.29
38786;BME280;24535;45.508;12.252;2023-02-12T01:36:26;103194.22;;;4.74;54.41
38786;BME280;24535;45.508;12.252;2023-02-12T01:38:52;103182.03;;;4.75;54.68
38786;BME280;24535;45.508;12.252;2023-02-12T01:41:21;103195.97;;;4.75;54.13
38786;BME280;24535;45.508;12.252;2023-02-12T01:46:38;103187.25;;;4.71;54.34
38786;BME280;24535;45.508;12.252;2023-02-12T01:49:06;103184.66;;;4.67;54.32
38786;BME280;24535;45.508;12.252;2023-02-12T01:51:34;103173.38;;;4.63;54.56
38786;BME280;24535;45.508;12.252;2023-02-12T01:54:02;103173.38;;;4.62;54.46
38786;BME280;24535;45.508;12.252;2023-02-12T01:56:29;103173.38;;;4.57;54.73
38786;BME280;24535;45.508;12.252;2023-02-12T01:58:55;103179.47;;;4.56;54.85
38786;BME280;24535;45.508;12.252;2023-02-12T02:01:25;103178.63;;;4.54;54.67
38786;BME280;24535;45.508;12.252;2023-02-12T02:03:54;103185.56;;;4.58;54.85
38786;BME280;24535;45.508;12.252;2023-02-12T02:06:26;103181.22;;;4.56;54.55
38786;BME280;24535;45.508;12.252;2023-02-12T02:08:54;103178.63;;;4.51;54.69
38786;BME280;24535;45.508;12.252;2023-02-12T02:11:21;103185.56;;;4.52;54.51
38786;BME280;24535;45.508;12.252;2023-02-12T02:14:05;103180.34;;;4.49;54.45
38786;BME280;24535;45.508;12.252;2023-02-12T02:37:03;103147.34;;;4.30;55.25
38786;BME280;24535;45.508;12.252;2023-02-12T02:41:37;103146.47;;;4.28;54.78
38786;BME280;24535;45.508;12.252;2023-02-12T02:44:21;103161.25;;;4.29;55.53
38786;BME280;24535;45.508;12.252;2023-02-12T02:46:50;103156.91;;;4.26;55.36
38786;BME280;24535;45.508;12.252;2023-02-12T02:49:37;103162.13;;;4.26;55.56
38786;BME280;24535;45.508;12.252;2023-02-12T02:52:08;103160.38;;;4.25;55.27
38786;BME280;24535;45.508;12.252;2023-02-12T02:54:39;103152.56;;;4.27;55.27
38786;BME280;24535;45.508;12.252;2023-02-12T02:57:15;103158.63;;;4.29;55.60
38786;BME280;24535;45.508;12.252;2023-02-12T02:59:46;103152.56;;;4.24;55.03
38786;BME280;24535;45.508;12.252;2023-02-12T03:02:34;103141.28;;;4.26;55.68
38786;BME280;24535;45.508;12.252;2023-02-12T03:05:05;103139.50;;;4.25;55.12
38786;BME280;24535;45.508;12.252;2023-02-12T03:07:40;103144.72;;;4.25;55.74
38786;BME280;24535;45.508;12.252;2023-02-12T03:10:14;103144.75;;;4.24;55.34
38786;BME280;24535;45.508;12.252;2023-02-12T03:12:54;103139.53;;;4.22;55.10
38786;BME280;24535;45.508;12.252;2023-02-12T03:15:45;103140.38;;;4.21;55.34
38786;BME280;24535;45.508;12.252;2023-02-12T03:18:19;103139.53;;;4.19;55.45
38786;BME280;24535;45.508;12.252;2023-02-12T03:20:52;103145.63;;;4.19;55.06
38786;BME280;24535;45.508;12.252;2023-02-12T03:23:31;103129.97;;;4.16;55.09
38786;BME280;24535;45.508;12.252;2023-02-12T03:26:07;103125.66;;;4.09;55.04
38786;BME280;24535;45.508;12.252;2023-02-12T03:28:36;103132.59;;;4.10;55.01
38786;BME280;24535;45.508;12.252;2023-02-12T03:31:09;103132.56;;;4.09;56.00
38786;BME280;24535;45.508;12.252;2023-02-12T03:34:08;103128.25;;;4.08;55.90
38786;BME280;24535;45.508;12.252;2023-02-12T03:36:50;103144.78;;;4.10;55.58
38786;BME280;24535;45.508;12.252;2023-02-12T03:39:28;103135.19;;;4.09;56.44
38786;BME280;24535;45.508;12.252;2023-02-12T03:42:04;103140.41;;;4.13;55.95
38786;BME280;24535;45.508;12.252;2023-02-12T03:44:51;103137.81;;;4.13;55.21
38786;BME280;24535;45.508;12.252;2023-02-12T03:47:35;103138.66;;;4.12;55.90
38786;BME280;24535;45.508;12.252;2023-02-12T03:50:22;103129.09;;;4.14;54.99
38786;BME280;24535;45.508;12.252;2023-02-12T03:52:52;103123.88;;;4.11;55.39
38786;BME280;24535;45.508;12.252;2023-02-12T03:55:18;103129.97;;;4.09;55.60
38786;BME280;24535;45.508;12.252;2023-02-12T07:48:46;103248.16;;;4.80;54.97
38786;BME280;24535;45.508;12.252;2023-02-12T07:51:14;103252.47;;;4.90;55.12
38786;BME280;24535;45.508;12.252;2023-02-12T07:53:40;103252.47;;;5.01;54.89
38786;BME280;24535;45.508;12.252;2023-02-12T07:56:18;103244.59;;;5.11;54.91
38786;BME280;24535;45.508;12.252;2023-02-12T07:59:06;103247.16;;;5.20;54.54
38786;BME280;24535;45.508;12.252;2023-02-12T08:01:37;103251.50;;;5.28;54.42
38786;BME280;24535;45.508;12.252;2023-02-12T08:04:16;103268.91;;;5.35;54.50
38786;BME280;24535;45.508;12.252;2023-02-12T08:06:47;103275.84;;;5.40;54.18
38786;BME280;24535;45.508;12.252;2023-02-12T08:09:19;103268.84;;;5.44;54.05
38786;BME280;24535;45.508;12.252;2023-02-12T08:11:57;103271.41;;;5.50;54.00
38786;BME280;24535;45.508;12.252;2023-02-12T08:14:23;103276.63;;;5.59;54.11
38786;BME280;24535;45.508;12.252;2023-02-12T08:17:24;103265.25;;;5.66;54.03
38786;BME280;24535;45.508;12.252;2023-02-12T08:19:53;103254.78;;;5.69;54.23
38786;BME280;24535;45.508;12.252;2023-02-12T08:22:21;103258.19;;;5.79;54.09
38786;BME280;24535;45.508;12.252;2023-02-12T08:24:46;103266.88;;;5.86;53.93
38786;BME280;24535;45.508;12.252;2023-02-12T08:27:12;103272.06;;;5.95;53.83
38786;BME280;24535;45.508;12.252;2023-02-12T08:29:37;103273.75;;;6.05;53.91
38786;BME280;24535;45.508;12.252;2023-02-12T08:32:03;103269.25;;;6.23;54.06
38786;BME280;24535;45.508;12.252;2023-02-12T08:34:40;103270.84;;;6.43;54.26
38786;BME280;24535;45.508;12.252;2023-02-12T08:37:06;103269.84;;;6.58;53.59
38786;BME280;24535;45.508;12.252;2023-02-12T08:39:31;103274.06;;;6.72;53.47
38786;BME280;24535;45.508;12.252;2023-02-12T08:41:58;103274.00;;;6.81;53.16
38786;BME280;24535;45.508;12.252;2023-02-12T08:44:23;103269.56;;;6.84;52.97
38786;BME280;24535;45.508;12.252;2023-02-12T08:46:52;103284.31;;;6.98;52.87
38786;BME280;24535;45.508;12.252;2023-02-12T08:49:25;103283.25;;;7.12;52.95
38786;BME280;24535;45.508;12.252;2023-02-12T08:51:53;103269.91;;;7.34;53.51
38786;BME280;24535;45.508;12.252;2023-02-12T08:54:21;103270.34;;;7.65;53.22
38786;BME280;24535;45.508;12.252;2023-02-12T08:56:48;103277.75;;;7.99;52.92
38786;BME280;24535;45.508;12.252;2023-02-12T08:59:15;103275.63;;;8.24;52.24
38786;BME280;24535;45.508;12.252;2023-02-12T09:01:42;103281.31;;;8.50;52.09
38786;BME280;24535;45.508;12.252;2023-02-12T09:04:20;103289.69;;;8.74;51.01
38786;BME280;24535;45.508;12.252;2023-02-12T09:06:46;103292.84;;;8.91;51.12
38786;BME280;24535;45.508;12.252;2023-02-12T09:09:13;103287.38;;;9.03;50.27
38786;BME280;24535;45.508;12.252;2023-02-12T09:11:38;103297.81;;;9.08;49.79
38786;BME280;24535;45.508;12.252;2023-02-12T09:14:09;103303.03;;;9.09;49.60
38786;BME280;24535;45.508;12.252;2023-02-12T09:16:35;103300.47;;;9.06;49.27
38786;BME280;24535;45.508;12.252;2023-02-12T09:19:02;103297.72;;;9.12;49.89
38786;BME280;24535;45.508;12.252;2023-02-12T09:21:28;103304.59;;;9.20;49.41
38786;BME280;24535;45.508;12.252;2023-02-12T09:23:57;103300.81;;;9.33;49.82
38786;BME280;24535;45.508;12.252;2023-02-12T09:26:25;103306.63;;;9.49;49.83
38786;BME280;24535;45.508;12.252;2023-02-12T09:28:57;103300.09;;;9.66;49.39
38786;BME280;24535;45.508;12.252;2023-02-12T09:31:29;103305.78;;;9.87;49.06
38786;BME280;24535;45.508;12.252;2023-02-12T09:34:09;103309.00;;;10.01;48.32
38786;BME280;24535;45.508;12.252;2023-02-12T09:36:34;103314.84;;;10.14;47.82
38786;BME280;24535;45.508;12.252;2023-02-12T09:39:01;103315.59;;;10.19;47.12
38786;BME280;24535;45.508;12.252;2023-02-12T09:46:34;103328.56;;;10.28;46.47
38786;BME280;24535;45.508;12.252;2023-02-12T09:52:24;103332.19;;;10.23;45.65
38786;BME280;24535;45.508;12.252;2023-02-12T09:54:52;103332.97;;;10.28;45.29
38786;BME280;24535;45.508;12.252;2023-02-12T09:57:33;103327.53;;;10.35;44.50
38786;BME280;24535;45.508;12.252;2023-02-12T10:00:08;103334.31;;;10.46;45.36
38786;BME280;24535;45.508;12.252;2023-02-12T10:02:35;103342.84;;;10.55;45.37
38786;BME280;24535;45.508;12.252;2023-02-12T10:05:03;103341.00;;;10.59;45.70
38786;BME280;24535;45.508;12.252;2023-02-12T10:07:58;103335.56;;;10.65;43.51
38786;BME280;24535;45.508;12.252;2023-02-12T10:10:50;103349.41;;;10.73;43.24
38786;BME280;24535;45.508;12.252;2023-02-12T10:21:38;103366.63;;;10.88;43.34
38786;BME280;24535;45.508;12.252;2023-02-12T10:26:46;103372.00;;;11.18;43.82
38786;BME280;24535;45.508;12.252;2023-02-12T10:31:43;103346.69;;;11.43;44.19
38786;BME280;24535;45.508;12.252;2023-02-12T10:34:22;103350.63;;;11.58;43.28
38786;BME280;24535;45.508;12.252;2023-02-12T10:36:49;103358.25;;;11.69;41.07
38786;BME280;24535;45.508;12.252;2023-02-12T10:39:25;103356.19;;;11.80;43.67
38786;BME280;24535;45.508;12.252;2023-02-12T10:42:00;103356.84;;;11.88;42.97
38786;BME280;24535;45.508;12.252;2023-02-12T10:44:27;103354.00;;;11.94;43.25
38786;BME280;24535;45.508;12.252;2023-02-12T10:46:53;103362.63;;;12.01;42.17
38786;BME280;24535;45.508;12.252;2023-02-12T10:49:19;103362.41;;;12.07;41.74
38786;BME280;24535;45.508;12.252;2023-02-12T10:55:01;103365.78;;;12.12;40.56
38786;BME280;24535;45.508;12.252;2023-02-12T10:57:29;103374.59;;;12.12;40.71
38786;BME280;24535;45.508;12.252;2023-02-12T11:00:14;103371.09;;;12.12;40.51
38786;BME280;24535;45.508;12.252;2023-02-12T11:02:59;103361.38;;;12.12;38.93
38786;BME280;24535;45.508;12.252;2023-02-12T11:05:28;103363.09;;;12.13;39.36
38786;BME280;24535;45.508;12.252;2023-02-12T11:07:54;103355.22;;;12.12;39.83
38786;BME280;24535;45.508;12.252;2023-02-12T11:10:30;103352.75;;;12.06;39.34
38786;BME280;24535;45.508;12.252;2023-02-12T11:12:58;103353.81;;;12.00;39.43
38786;BME280;24535;45.508;12.252;2023-02-12T11:15:27;103341.72;;;11.93;39.69
38786;BME280;24535;45.508;12.252;2023-02-12T11:18:06;103343.72;;;11.85;39.20
38786;BME280;24535;45.508;12.252;2023-02-12T11:20:41;103346.47;;;11.80;39.75
38786;BME280;24535;45.508;12.252;2023-02-12T11:23:58;103348.28;;;11.78;39.70
38786;BME280;24535;45.508;12.252;2023-02-12T11:26:26;103343.22;;;11.71;39.29
38786;BME280;24535;45.508;12.252;2023-02-12T11:29:01;103351.19;;;11.69;39.37
38786;BME280;24535;45.508;12.252;2023-02-12T11:31:29;103349.63;;;11.62;38.83
38786;BME280;24535;45.508;12.252;2023-02-12T11:34:14;103354.06;;;11.61;38.70
38786;BME280;24535;45.508;12.252;2023-02-12T11:36:51;103352.41;;;11.57;38.41
38786;BME280;24535;45.508;12.252;2023-02-12T11:39:27;103353.41;;;11.53;38.56
38786;BME280;24535;45.508;12.252;2023-02-12T11:42:01;103361.34;;;11.53;38.43
38786;BME280;24535;45.508;12.252;2023-02-12T11:44:36;103352.63;;;11.50;38.45
38786;BME280;24535;45.508;12.252;2023-02-12T11:47:16;103359.63;;;11.52;37.76
38786;BME280;24535;45.508;12.252;2023-02-12T11:49:49;103355.06;;;11.57;38.47
38786;BME280;24535;45.508;12.252;2023-02-12T11:52:28;103362.84;;;11.62;38.18
38786;BME280;24535;45.508;12.252;2023-02-12T11:55:00;103356.69;;;11.61;38.84
38786;BME280;24535;45.508;12.252;2023-02-12T11:57:53;103357.53;;;11.63;38.59
38786;BME280;24535;45.508;12.252;2023-02-12T12:00:29;103362.97;;;11.59;39.35
38786;BME280;24535;45.508;12.252;2023-02-12T12:03:06;103352.50;;;11.54;38.72
38786;BME280;24535;45.508;12.252;2023-02-12T12:05:46;103357.84;;;11.53;38.67
38786;BME280;24535;45.508;12.252;2023-02-12T12:08:23;103360.34;;;11.57;39.22
38786;BME280;24535;45.508;12.252;2023-02-12T12:10:56;103356.84;;;11.57;38.63
38786;BME280;24535;45.508;12.252;2023-02-12T12:13:29;103361.97;;;11.61;38.12
38786;BME280;24535;45.508;12.252;2023-02-12T12:16:13;103352.28;;;11.62;38.19
38786;BME280;24535;45.508;12.252;2023-02-12T12:19:27;103345.13;;;11.67;37.97
38786;BME280;24535;45.508;12.252;2023-02-12T12:25:11;103356.47;;;11.69;38.49
38786;BME280;24535;45.508;12.252;2023-02-12T12:30:59;103360.91;;;11.69;37.49
38786;BME280;24535;45.508;12.252;2023-02-12T12:33:42;103351.06;;;11.74;38.03
38786;BME280;24535;45.508;12.252;2023-02-12T12:42:07;103351.34;;;11.64;37.91
38786;BME280;24535;45.508;12.252;2023-02-12T12:53:54;103366.47;;;11.58;37.69
38786;BME280;24535;45.508;12.252;2023-02-12T13:07:50;103363.41;;;11.42;37.57
38786;BME280;24535;45.508;12.252;2023-02-12T13:19:15;103371.66;;;11.30;37.98
38786;BME280;24535;45.508;12.252;2023-02-12T13:22:10;103372.50;;;11.32;38.61
38786;BME280;24535;45.508;12.252;2023-02-12T13:24:51;103377.66;;;11.36;38.84
38786;BME280;24535;45.508;12.252;2023-02-12T13:27:25;103368.78;;;11.39;38.77
38786;BME280;24535;45.508;12.252;2023-02-12T13:30:03;103372.31;;;11.38;38.56
38786;BME280;24535;45.508;12.252;2023-02-12T13:32:41;103368.75;;;11.41;39.02
38786;BME280;24535;45.508;12.252;2023-02-12T13:35:16;103366.03;;;11.42;38.76
38786;BME280;24535;45.508;12.252;2023-02-12T13:37:46;103371.31;;;11.44;38.72
38786;BME280;24535;45.508;12.252;2023-02-12T13:40:16;103385.38;;;11.44;39.04
38786;BME280;24535;45.508;12.252;2023-02-12T13:42:49;103375.78;;;11.40;39.13
38786;BME280;24535;45.508;12.252;2023-02-12T13:45:24;103380.28;;;11.36;38.93
38786;BME280;24535;45.508;12.252;2023-02-12T13:48:19;103378.59;;;11.34;39.66
38786;BME280;24535;45.508;12.252;2023-02-12T13:53:57;103387.50;;;11.30;40.45
38786;BME280;24535;45.508;12.252;2023-02-12T14:02:23;103387.47;;;11.31;40.95
38786;BME280;24535;45.508;12.252;2023-02-12T14:04:56;103389.19;;;11.32;41.24
38786;BME280;24535;45.508;12.252;2023-02-12T14:07:39;103386.50;;;11.34;41.17
38786;BME280;24535;45.508;12.252;2023-02-12T14:10:06;103389.13;;;11.35;41.05
38786;BME280;24535;45.508;12.252;2023-02-12T14:12:37;103400.50;;;11.37;40.80
38786;BME280;24535;45.508;12.252;2023-02-12T14:15:40;103395.31;;;11.34;41.35
38786;BME280;24535;45.508;12.252;2023-02-12T14:18:35;103404.78;;;11.42;41.90
38786;BME280;24535;45.508;12.252;2023-02-12T14:23:36;103405.41;;;11.51;42.25
38786;BME280;24535;45.508;12.252;2023-02-12T14:26:06;103400.91;;;11.55;41.84
38786;BME280;24535;45.508;12.252;2023-02-12T14:29:15;103404.34;;;11.57;41.57
38786;BME280;24535;45.508;12.252;2023-02-12T14:31:45;103403.50;;;11.56;42.53
38786;BME280;24535;45.508;12.252;2023-02-12T14:36:41;103401.78;;;11.55;41.79
38786;BME280;24535;45.508;12.252;2023-02-12T14:49:41;103415.31;;;11.43;42.65
38786;BME280;24535;45.508;12.252;2023-02-12T14:52:15;103413.66;;;11.39;43.16
38786;BME280;24535;45.508;12.252;2023-02-12T14:57:25;103410.91;;;11.42;43.22
38786;BME280;24535;45.508;12.252;2023-02-12T15:02:44;103414.59;;;11.36;43.67
38786;BME280;24535;45.508;12.252;2023-02-12T15:05:22;103420.75;;;11.37;43.60
38786;BME280;24535;45.508;12.252;2023-02-12T15:07:52;103420.78;;;11.35;43.68
38786;BME280;24535;45.508;12.252;2023-02-12T15:10:47;103416.44;;;11.33;44.15
38786;BME280;24535;45.508;12.252;2023-02-12T15:13:39;103420.81;;;11.34;43.12
38786;BME280;24535;45.508;12.252;2023-02-12T15:18:49;103420.91;;;11.31;43.10
38786;BME280;24535;45.508;12.252;2023-02-12T15:21:23;103425.34;;;11.30;43.69
38786;BME280;24535;45.508;12.252;2023-02-12T15:24:10;103419.22;;;11.28;43.42
38786;BME280;24535;45.508;12.252;2023-02-12T15:26:40;103419.28;;;11.27;42.85
38786;BME280;24535;45.508;12.252;2023-02-12T15:29:19;103420.22;;;11.24;43.04
38786;BME280;24535;45.508;12.252;2023-02-12T15:31:58;103420.28;;;11.21;43.26
38786;BME280;24535;45.508;12.252;2023-02-12T15:34:28;103416.03;;;11.16;43.13
38786;BME280;24535;45.508;12.252;2023-02-12T15:37:02;103416.97;;;11.13;42.95
38786;BME280;24535;45.508;12.252;2023-02-12T15:39:40;103424.09;;;11.09;43.57
38786;BME280;24535;45.508;12.252;2023-02-12T15:42:33;103422.44;;;11.07;43.14
38786;BME280;24535;45.508;12.252;2023-02-12T15:45:27;103428.63;;;11.04;43.11
38786;BME280;24535;45.508;12.252;2023-02-12T15:50:28;103421.75;;;10.99;43.67
38786;BME280;24535;45.508;12.252;2023-02-12T15:52:54;103424.47;;;10.96;43.81
38786;BME280;24535;45.508;12.252;2023-02-12T15:55:26;103423.59;;;10.95;44.11
38786;BME280;24535;45.508;12.252;2023-02-12T15:57:54;103428.88;;;10.95;44.36
38786;BME280;24535;45.508;12.252;2023-02-12T16:00:44;103425.44;;;10.92;43.89
38786;BME280;24535;45.508;12.252;2023-02-12T16:03:42;103426.38;;;10.89;43.95
38786;BME280;24535;45.508;12.252;2023-02-12T16:06:12;103429.91;;;10.88;44.15
38786;BME280;24535;45.508;12.252;2023-02-12T16:08:43;103421.28;;;10.81;44.36
38786;BME280;24535;45.508;12.252;2023-02-12T16:11:10;103437.09;;;10.83;44.16
38786;BME280;24535;45.508;12.252;2023-02-12T16:13:50;103435.38;;;10.80;44.69
38786;BME280;24535;45.508;12.252;2023-02-12T16:16:34;103442.44;;;10.80;44.94
38786;BME280;24535;45.508;12.252;2023-02-12T16:19:21;103446.84;;;10.79;44.40
38786;BME280;24535;45.508;12.252;2023-02-12T16:21:54;103446.97;;;10.73;44.73
38786;BME280;24535;45.508;12.252;2023-02-12T16:26:53;103449.69;;;10.70;44.87
38786;BME280;24535;45.508;12.252;2023-02-12T16:29:19;103455.91;;;10.68;44.82
38786;BME280;24535;45.508;12.252;2023-02-12T16:32:25;103456.75;;;10.68;44.97
38786;BME280;24535;45.508;12.252;2023-02-12T16:34:59;103458.59;;;10.64;44.97
38786;BME280;24535;45.508;12.252;2023-02-12T16:37:51;103463.06;;;10.62;44.95
38786;BME280;24535;45.508;12.252;2023-02-12T16:40:29;103458.72;;;10.60;45.30
38786;BME280;24535;45.508;12.252;2023-02-12T16:43:10;103452.66;;;10.56;45.06
38786;BME280;24535;45.508;12.252;2023-02-12T16:45:45;103469.38;;;10.55;44.87
38786;BME280;24535;45.508;12.252;2023-02-12T16:48:22;103462.44;;;10.51;44.75
38786;BME280;24535;45.508;12.252;2023-02-12T16:50:55;103468.63;;;10.50;45.09
38786;BME280;24535;45.508;12.252;2023-02-12T16:55:54;103475.66;;;10.48;45.06
38786;BME280;24535;45.508;12.252;2023-02-12T16:58:19;103477.56;;;10.43;45.28
38786;BME280;24535;45.508;12.252;2023-02-12T17:00:45;103479.28;;;10.44;45.11
38786;BME280;24535;45.508;12.252;2023-02-12T17:03:12;103488.94;;;10.44;45.09
38786;BME280;24535;45.508;12.252;2023-02-12T17:05:38;103485.50;;;10.40;45.65
38786;BME280;24535;45.508;12.252;2023-02-12T17:08:19;103485.56;;;10.38;45.79
38786;BME280;24535;45.508;12.252;2023-02-12T17:10:45;103485.63;;;10.35;45.88
38786;BME280;24535;45.508;12.252;2023-02-12T17:13:12;103489.16;;;10.33;45.87
38786;BME280;24535;45.508;12.252;2023-02-12T17:15:58;103498.78;;;10.35;47.02
38786;BME280;24535;45.508;12.252;2023-02-12T17:18:28;103502.28;;;10.36;47.02
38786;BME280;24535;45.508;12.252;2023-02-12T17:21:03;103502.34;;;10.33;47.30
38786;BME280;24535;45.508;12.252;2023-02-12T17:23:32;103500.72;;;10.27;47.45
38786;BME280;24535;45.508;12.252;2023-02-12T17:25:57;103504.22;;;10.28;47.00
38786;BME280;24535;45.508;12.252;2023-02-12T17:28:23;103499.91;;;10.25;47.67
38786;BME280;24535;45.508;12.252;2023-02-12T17:30:52;103505.13;;;10.27;47.92
38786;BME280;24535;45.508;12.252;2023-02-12T17:33:21;103517.44;;;10.25;47.93
38786;BME280;24535;45.508;12.252;2023-02-12T17:35:47;103519.28;;;10.21;47.96
38786;BME280;24535;45.508;12.252;2023-02-12T17:38:12;103520.09;;;10.23;48.06
38786;BME280;24535;45.508;12.252;2023-02-12T17:40:38;103518.38;;;10.21;48.53
38786;BME280;24535;45.508;12.252;2023-02-12T17:43:04;103513.22;;;10.16;48.86
38786;BME280;24535;45.508;12.252;2023-02-12T17:45:40;103523.72;;;10.18;48.69
38786;BME280;24535;45.508;12.252;2023-02-12T17:48:11;103521.09;;;10.16;49.05
38786;BME280;24535;45.508;12.252;2023-02-12T17:50:37;103523.88;;;10.10;48.67
38786;BME280;24535;45.508;12.252;2023-02-12T17:53:03;103529.97;;;10.12;49.31
38786;BME280;24535;45.508;12.252;2023-02-12T17:55:39;103536.19;;;10.08;49.71
38786;BME280;24535;45.508;12.252;2023-02-12T17:58:05;103516.13;;;10.02;49.53
38786;BME280;24535;45.508;12.252;2023-02-12T18:00:30;103531.97;;;9.99;49.36
38786;BME280;24535;45.508;12.252;2023-02-12T18:02:56;103529.44;;;9.95;48.57
38786;BME280;24535;45.508;12.252;2023-02-12T18:05:21;103538.22;;;9.95;49.56
38786;BME280;24535;45.508;12.252;2023-02-12T18:07:50;103530.44;;;9.89;49.80
38786;BME280;24535;45.508;12.252;2023-02-12T18:10:15;103533.13;;;9.86;49.57
38786;BME280;24535;45.508;12.252;2023-02-12T18:12:43;103534.03;;;9.83;49.59
38786;BME280;24535;45.508;12.252;2023-02-12T18:15:09;103538.47;;;9.80;50.39
38786;BME280;24535;45.508;12.252;2023-02-12T18:17:35;103536.75;;;9.79;49.82
38786;BME280;24535;45.508;12.252;2023-02-12T18:20:07;103537.72;;;9.75;49.95
38786;BME280;24535;45.508;12.252;2023-02-12T18:22:33;103552.63;;;9.74;50.23
38786;BME280;24535;45.508;12.252;2023-02-12T18:24:59;103543.09;;;9.69;50.28
38786;BME280;24535;45.508;12.252;2023-02-12T18:27:24;103551.84;;;9.69;50.27
38786;BME280;24535;45.508;12.252;2023-02-12T18:29:52;103548.41;;;9.65;50.40
38786;BME280;24535;45.508;12.252;2023-02-12T18:32:20;103550.25;;;9.60;50.63
38786;BME280;24535;45.508;12.252;2023-02-12T18:34:51;103549.41;;;9.58;50.41
38786;BME280;24535;45.508;12.252;2023-02-12T18:37:16;103552.97;;;9.54;50.65
38786;BME280;24535;45.508;12.252;2023-02-12T18:39:42;103557.44;;;9.51;50.49
38786;BME280;24535;45.508;12.252;2023-02-12T18:42:07;103564.41;;;9.52;51.22
38786;BME280;24535;45.508;12.252;2023-02-12T18:44:33;103561.88;;;9.49;50.74
38786;BME280;24535;45.508;12.252;2023-02-12T18:46:59;103571.53;;;9.47;51.31
38786;BME280;24535;45.508;12.252;2023-02-12T18:49:26;103573.34;;;9.43;51.32
38786;BME280;24535;45.508;12.252;2023-02-12T18:51:51;103569.09;;;9.36;51.27
38786;BME280;24535;45.508;12.252;2023-02-12T18:54:17;103576.97;;;9.36;50.90
38786;BME280;24535;45.508;12.252;2023-02-12T18:56:44;103575.28;;;9.32;51.21
38786;BME280;24535;45.508;12.252;2023-02-12T18:59:12;103576.16;;;9.31;51.51
38786;BME280;24535;45.508;12.252;2023-02-12T19:01:39;103573.66;;;9.25;51.54
38786;BME280;24535;45.508;12.252;2023-02-12T19:04:06;103575.41;;;9.23;51.80
38786;BME280;24535;45.508;12.252;2023-02-12T19:06:36;103573.69;;;9.22;51.70
38786;BME280;24535;45.508;12.252;2023-02-12T19:09:02;103573.72;;;9.20;51.74
38786;BME280;24535;45.508;12.252;2023-02-12T19:11:29;103570.28;;;9.15;51.85
38786;BME280;24535;45.508;12.252;2023-02-12T19:13:55;103573.81;;;9.14;51.76
38786;BME280;24535;45.508;12.252;2023-02-12T19:16:21;103572.16;;;9.08;52.09
38786;BME280;24535;45.508;12.252;2023-02-12T19:18:52;103572.16;;;9.08;52.37